Time;durP1;ratioP1;P1;durP2;ratioP2;P2;SDS_P1;SDS_P2;PMS_P1;PMS_P2;Temp;Humidity;BMP_temperature;BMP_pressure;BME280_temperature;BME280_humidity;BME280_pressure;Samples;Min_cycle;Max_cycle;Signal;HPM_P1;HPM_P2
2024/04/08 00:01:03;;;;;;;1.00;0.60;;;;;;;19.00;86.28;100612.03;5044095;28;20048;-68
2024/04/08 00:03:29;;;;;;;2.58;0.70;;;;;;;18.95;85.96;100606.28;5050039;28;20029;-68
2024/04/08 00:05:57;;;;;;;1.98;0.40;;;;;;;19.07;84.79;100611.16;5027790;28;20083;-68
2024/04/08 00:08:22;;;;;;;0.70;0.50;;;;;;;19.00;83.85;100614.00;5048114;28;20025;-68
2024/04/08 00:10:47;;;;;;;3.97;0.60;;;;;;;18.97;84.26;100596.47;5028652;28;20034;-68
2024/04/08 00:13:13;;;;;;;0.63;0.40;;;;;;;18.87;85.49;100589.97;5041813;28;20121;-68
2024/04/08 00:15:38;;;;;;;3.30;0.63;;;;;;;18.96;84.03;100588.69;5033497;28;20487;-68
2024/04/08 00:18:04;;;;;;;1.17;0.52;;;;;;;18.89;84.13;100586.88;5030408;28;20040;-68
2024/04/08 00:20:30;;;;;;;1.23;0.73;;;;;;;18.65;84.57;100593.44;5028786;28;20108;-68
2024/04/08 00:22:55;;;;;;;3.08;0.73;;;;;;;18.62;85.42;100591.53;5028336;28;20026;-68
2024/04/08 00:25:21;;;;;;;1.13;0.38;;;;;;;18.51;85.79;100597.13;5026393;28;20121;-68
2024/04/08 00:27:46;;;;;;;0.90;0.50;;;;;;;18.50;86.75;100601.03;5043550;28;20762;-68
2024/04/08 00:30:12;;;;;;;1.45;0.38;;;;;;;18.56;86.16;100591.19;5013976;28;20309;-68
2024/04/08 00:32:37;;;;;;;1.90;0.63;;;;;;;18.37;86.81;100582.88;5044379;28;20179;-69
2024/04/08 00:35:03;;;;;;;0.43;0.40;;;;;;;18.40;87.48;100590.22;5044418;28;20112;-68
2024/04/08 00:37:29;;;;;;;0.50;0.40;;;;;;;18.42;86.88;100575.03;5029027;28;20045;-68
2024/04/08 00:39:55;;;;;;;2.72;0.50;;;;;;;18.38;86.90;100571.56;5026700;28;20025;-68
2024/04/08 00:42:20;;;;;;;4.00;0.50;;;;;;;18.31;87.10;100576.31;5041632;28;20026;-68
2024/04/08 00:44:46;;;;;;;0.93;0.45;;;;;;;18.13;88.17;100587.44;5025064;28;20041;-68
2024/04/08 00:47:13;;;;;;;0.98;0.52;;;;;;;18.12;88.21;100585.13;5026341;28;20026;-68
2024/04/08 00:49:40;;;;;;;0.75;0.40;;;;;;;18.19;88.36;100583.09;5033065;28;20112;-68
2024/04/08 00:52:10;;;;;;;2.53;0.50;;;;;;;18.15;88.76;100589.75;5033409;28;20061;-68
2024/04/08 00:54:37;;;;;;;2.50;0.60;;;;;;;18.06;88.81;100589.47;5046332;28;20428;-68
2024/04/08 00:57:05;;;;;;;1.77;0.73;;;;;;;18.15;89.08;100600.66;5034929;28;20021;-68
2024/04/08 00:59:33;;;;;;;1.08;0.50;;;;;;;18.23;88.14;100602.91;5031824;28;20600;-68
2024/04/08 01:02:00;;;;;;;1.08;0.52;;;;;;;18.17;88.12;100599.09;5025409;28;20036;-68
2024/04/08 01:04:25;;;;;;;0.55;0.55;;;;;;;18.04;88.94;100589.88;5029958;28;20021;-68
2024/04/08 01:06:51;;;;;;;0.50;0.30;;;;;;;17.99;88.46;100588.38;5045555;28;20481;-67
2024/04/08 01:09:16;;;;;;;0.75;0.43;;;;;;;17.91;88.75;100580.66;5026391;28;20041;-68
2024/04/08 01:11:43;;;;;;;0.90;0.60;;;;;;;18.04;88.84;100595.31;5025050;28;20037;-68
2024/04/08 01:14:10;;;;;;;3.83;0.70;;;;;;;18.06;88.67;100587.50;5027391;28;20057;-68
2024/04/08 01:16:36;;;;;;;1.77;0.40;;;;;;;18.04;88.47;100581.69;5033680;28;20498;-69
2024/04/08 01:19:02;;;;;;;0.88;0.70;;;;;;;18.03;88.25;100580.94;5028569;28;20036;-68
2024/04/08 01:21:28;;;;;;;1.92;0.45;;;;;;;18.08;88.22;100573.50;5028622;28;20033;-68
2024/04/08 01:23:55;;;;;;;3.10;0.60;;;;;;;17.99;89.35;100563.84;5031615;28;20056;-68
2024/04/08 01:26:20;;;;;;;1.25;0.45;;;;;;;17.88;90.33;100557.75;5026301;28;20025;-68
2024/04/08 01:28:46;;;;;;;1.48;0.57;;;;;;;17.95;89.79;100559.59;5026509;28;20540;-68
2024/04/08 01:31:11;;;;;;;1.20;0.43;;;;;;;18.06;88.41;100556.78;5029166;28;20036;-68
2024/04/08 01:33:40;;;;;;;0.40;0.40;;;;;;;17.92;88.74;100549.53;5028986;28;20049;-68
2024/04/08 01:36:06;;;;;;;2.42;0.60;;;;;;;17.90;90.18;100547.19;5029351;28;20033;-68
2024/04/08 01:38:31;;;;;;;0.95;0.40;;;;;;;17.95;90.55;100541.31;5039512;28;20487;-68
2024/04/08 01:40:57;;;;;;;0.90;0.30;;;;;;;17.99;89.59;100536.59;5027403;28;20040;-68
2024/04/08 01:43:24;;;;;;;2.25;0.57;;;;;;;17.99;90.65;100542.03;5032710;28;20175;-68
2024/04/08 01:45:52;;;;;;;1.10;0.45;;;;;;;17.99;91.14;100544.00;5048650;28;20025;-68
2024/04/08 01:48:17;;;;;;;0.50;0.50;;;;;;;18.03;90.07;100520.97;5030873;28;20031;-68
2024/04/08 01:50:43;;;;;;;0.60;0.60;;;;;;;18.04;88.95;100494.47;5011918;28;20565;-68
2024/04/08 01:53:08;;;;;;;1.23;0.60;;;;;;;18.00;89.02;100475.44;5044096;28;20069;-68
2024/04/08 01:55:34;;;;;;;1.40;0.32;;;;;;;17.95;90.48;100477.84;5033285;28;20028;-68
2024/04/08 01:57:59;;;;;;;3.83;0.82;;;;;;;18.02;89.50;100481.25;5034955;28;20104;-68
2024/04/08 02:00:25;;;;;;;0.70;0.35;;;;;;;17.96;89.64;100461.09;5027824;28;20030;-68
2024/04/08 02:02:50;;;;;;;0.50;0.50;;;;;;;17.95;89.35;100453.31;5035052;28;20048;-68
2024/04/08 02:05:16;;;;;;;0.60;0.40;;;;;;;17.94;90.45;100465.41;5061848;28;20021;-68
2024/04/08 02:07:43;;;;;;;0.80;0.35;;;;;;;17.94;90.18;100463.44;5042268;28;20025;-68
2024/04/08 02:10:09;;;;;;;0.63;0.30;;;;;;;17.92;89.91;100452.19;5046819;28;20037;-68
2024/04/08 02:12:34;;;;;;;2.60;0.88;;;;;;;17.89;90.02;100450.28;5030676;28;20116;-68
2024/04/08 02:15:00;;;;;;;3.58;0.68;;;;;;;17.95;89.97;100456.81;5048351;28;20025;-68
2024/04/08 02:17:26;;;;;;;1.13;0.60;;;;;;;17.91;89.59;100442.47;5059497;28;20080;-68
2024/04/08 02:19:51;;;;;;;5.40;0.70;;;;;;;17.87;89.68;100438.25;5033018;28;20597;-68
2024/04/08 02:22:17;;;;;;;1.60;0.70;;;;;;;17.84;90.14;100437.13;5014872;28;20032;-68
2024/04/08 02:24:43;;;;;;;1.70;0.57;;;;;;;17.96;89.09;100436.56;5060974;28;20029;-68
2024/04/08 02:27:08;;;;;;;2.15;0.50;;;;;;;17.97;88.93;100432.66;5031224;28;20026;-68
2024/04/08 02:29:37;;;;;;;1.08;0.60;;;;;;;17.87;90.08;100427.34;5036938;28;20627;-68
2024/04/08 02:32:02;;;;;;;1.23;0.50;;;;;;;17.82;90.51;100444.16;5060741;28;20052;-68
2024/04/08 02:34:28;;;;;;;0.32;0.32;;;;;;;17.85;90.39;100449.56;5033383;28;20523;-68
2024/04/08 02:36:53;;;;;;;1.23;0.50;;;;;;;17.77;90.48;100452.75;5030684;28;20028;-69
2024/04/08 02:39:19;;;;;;;1.05;0.55;;;;;;;17.86;89.89;100453.84;5029077;28;20809;-68
2024/04/08 02:41:44;;;;;;;3.13;0.50;;;;;;;17.81;89.77;100446.09;5031760;28;20095;-71
2024/04/08 02:44:10;;;;;;;1.25;0.60;;;;;;;17.74;90.28;100456.31;5039446;28;20522;-68
2024/04/08 02:46:35;;;;;;;2.00;0.60;;;;;;;17.86;89.83;100474.84;5037998;28;20083;-68
2024/04/08 02:49:00;;;;;;;2.15;0.90;;;;;;;17.93;89.63;100497.34;5043218;28;20034;-68
2024/04/08 02:51:26;;;;;;;1.25;0.98;;;;;;;17.95;89.78;100510.56;5041718;28;20064;-68
2024/04/08 02:53:52;;;;;;;3.75;0.65;;;;;;;17.90;89.96;100508.28;5028258;28;20366;-68
2024/04/08 02:56:18;;;;;;;4.32;0.60;;;;;;;17.91;90.02;100498.91;5034640;28;20061;-68
2024/04/08 02:58:47;;;;;;;0.90;0.38;;;;;;;17.92;89.39;100498.50;5042620;28;20764;-68
2024/04/08 03:01:14;;;;;;;1.58;0.90;;;;;;;17.77;90.40;100499.84;5037286;28;20029;-68
2024/04/08 03:03:40;;;;;;;2.90;0.50;;;;;;;17.82;90.18;100507.59;5046817;28;20053;-68
2024/04/08 03:06:16;;;;;;;3.58;0.60;;;;;;;17.84;90.27;100507.19;5031707;28;20112;-68
2024/04/08 03:08:43;;;;;;;0.50;0.50;;;;;;;17.68;90.32;100494.13;5040336;28;20029;-68
2024/04/08 03:11:09;;;;;;;1.00;0.60;;;;;;;17.56;91.15;100493.88;5036041;28;20055;-68
2024/04/08 03:13:36;;;;;;;1.33;0.60;;;;;;;17.60;92.03;100510.94;5014723;28;20053;-68
2024/04/08 03:16:02;;;;;;;1.52;0.32;;;;;;;17.69;91.59;100501.13;5038792;28;20634;-68
2024/04/08 03:18:28;;;;;;;0.40;0.40;;;;;;;17.63;90.91;100504.72;5048538;28;20116;-68
2024/04/08 03:21:01;;;;;;;1.10;0.60;;;;;;;17.59;91.35;100512.91;5034739;28;20108;-68
2024/04/08 03:23:27;;;;;;;2.83;0.55;;;;;;;17.59;91.97;100517.59;5036133;28;20029;-68
2024/04/08 03:25:57;;;;;;;1.15;0.70;;;;;;;17.58;91.48;100516.81;5037302;28;20051;-68
2024/04/08 03:28:23;;;;;;;1.05;0.75;;;;;;;17.53;92.14;100516.47;5035023;28;20060;-68
2024/04/08 03:30:48;;;;;;;2.15;1.05;;;;;;;17.59;92.77;100517.59;5047910;28;20403;-68
2024/04/08 03:33:14;;;;;;;1.55;0.77;;;;;;;17.64;92.08;100517.91;5035804;28;20037;-68
2024/04/08 03:35:39;;;;;;;3.53;0.90;;;;;;;17.60;91.86;100530.00;5034465;28;20492;-68
2024/04/08 03:38:05;;;;;;;3.10;0.77;;;;;;;17.64;91.86;100531.53;5031960;28;20025;-68
2024/04/08 03:40:30;;;;;;;0.90;0.65;;;;;;;17.62;92.23;100544.78;5031260;28;20086;-67
2024/04/08 03:42:56;;;;;;;1.60;0.80;;;;;;;17.68;92.74;100532.28;5036557;28;20017;-67
2024/04/08 03:45:21;;;;;;;6.72;0.90;;;;;;;17.71;93.52;100530.69;5033259;28;20187;-68
2024/04/08 03:47:47;;;;;;;2.58;1.02;;;;;;;17.62;92.60;100523.00;5030716;28;20032;-68
2024/04/08 03:50:12;;;;;;;2.30;0.98;;;;;;;17.55;92.28;100527.75;5043275;28;20041;-68
2024/04/08 03:52:38;;;;;;;2.05;1.05;;;;;;;17.47;92.20;100529.75;5033101;28;20068;-68
2024/04/08 03:55:03;;;;;;;1.63;0.75;;;;;;;17.49;92.47;100521.19;5032208;28;20120;-68
2024/04/08 03:57:29;;;;;;;1.30;0.88;;;;;;;17.51;92.29;100518.84;5035362;28;20041;-67
2024/04/08 03:59:54;;;;;;;2.28;0.98;;;;;;;17.45;92.53;100526.66;5029168;28;20418;-68
2024/04/08 04:02:20;;;;;;;2.47;0.80;;;;;;;17.40;92.37;100516.19;5025921;28;20029;-68
2024/04/08 04:04:45;;;;;;;2.63;0.95;;;;;;;17.29;92.81;100518.22;5026426;28;20041;-68
2024/04/08 04:07:11;;;;;;;3.38;0.88;;;;;;;17.30;92.71;100517.06;5032943;28;20014;-68
2024/04/08 04:09:36;;;;;;;1.25;0.80;;;;;;;17.15;92.73;100510.19;5019480;28;20042;-68
2024/04/08 04:12:03;;;;;;;1.75;0.63;;;;;;;17.21;93.22;100516.75;5044714;28;20037;-69
2024/04/08 04:14:29;;;;;;;3.10;1.10;;;;;;;17.31;92.30;100513.16;5035203;28;20044;-68
2024/04/08 04:16:54;;;;;;;1.83;0.88;;;;;;;17.15;93.14;100508.25;5036720;28;20021;-68
2024/04/08 04:19:20;;;;;;;1.40;1.10;;;;;;;17.19;92.97;100518.34;5048027;28;20388;-68
2024/04/08 04:21:45;;;;;;;1.40;1.08;;;;;;;17.17;93.43;100510.56;5030643;28;20197;-68
2024/04/08 04:24:11;;;;;;;1.52;0.95;;;;;;;17.14;92.96;100512.16;5033998;28;20136;-69
2024/04/08 04:26:36;;;;;;;5.70;1.17;;;;;;;17.16;92.98;100503.59;5022169;28;20028;-68
2024/04/08 04:29:02;;;;;;;2.47;1.13;;;;;;;17.10;94.15;100491.59;5047732;28;20033;-68
2024/04/08 04:31:41;;;;;;;1.27;1.00;;;;;;;17.11;94.79;100480.28;5041051;28;20033;-68
2024/04/08 04:34:06;;;;;;;4.72;1.20;;;;;;;17.15;95.31;100482.97;5037000;28;20040;-68
2024/04/08 04:36:32;;;;;;;1.90;1.13;;;;;;;17.18;94.69;100484.91;5034513;28;20512;-68
2024/04/08 04:38:57;;;;;;;2.03;1.30;;;;;;;17.29;94.30;100493.72;5021387;28;20037;-68
2024/04/08 04:41:23;;;;;;;1.17;0.82;;;;;;;17.30;94.11;100491.78;5033176;28;20025;-68
2024/04/08 04:43:48;;;;;;;2.45;1.23;;;;;;;17.30;94.14;100489.06;5015710;28;20029;-68
2024/04/08 04:46:14;;;;;;;2.97;1.08;;;;;;;17.43;92.99;100490.09;5042592;28;20495;-68
2024/04/08 04:48:40;;;;;;;3.05;1.25;;;;;;;17.32;92.62;100484.78;5029702;28;20029;-67
2024/04/08 04:51:05;;;;;;;1.33;0.75;;;;;;;17.30;92.93;100483.63;5042958;28;20037;-68
2024/04/08 04:53:31;;;;;;;1.02;0.82;;;;;;;17.27;93.57;100481.69;5044766;28;20173;-68
2024/04/08 04:55:56;;;;;;;3.45;1.45;;;;;;;17.33;92.69;100496.41;5048893;28;20029;-69
2024/04/08 04:58:22;;;;;;;1.83;1.10;;;;;;;17.35;92.73;100497.56;5047406;28;20044;-68
2024/04/08 05:00:49;;;;;;;3.60;1.10;;;;;;;17.36;92.35;100496.41;5018465;28;20052;-68
2024/04/08 05:03:14;;;;;;;5.30;1.00;;;;;;;17.32;92.20;100498.38;5033299;28;20413;-68
2024/04/08 05:05:40;;;;;;;2.35;1.55;;;;;;;17.17;92.84;100478.69;5048967;28;20021;-68
2024/04/08 05:08:06;;;;;;;2.13;1.40;;;;;;;17.12;93.96;100475.63;5066267;28;20503;-68
2024/04/08 05:10:32;;;;;;;4.35;1.60;;;;;;;17.17;94.08;100488.78;5025316;28;20483;-67
2024/04/08 05:12:57;;;;;;;1.48;1.20;;;;;;;17.15;93.34;100475.59;5035314;28;20045;-68
2024/04/08 05:15:23;;;;;;;5.90;1.40;;;;;;;17.19;93.08;100475.53;5037189;28;20548;-68
2024/04/08 05:17:48;;;;;;;5.13;1.50;;;;;;;17.22;93.37;100474.75;5046634;28;20032;-67
2024/04/08 05:20:15;;;;;;;4.20;2.13;;;;;;;17.19;93.72;100456.50;5027992;28;20617;-67
2024/04/08 05:22:46;;;;;;;3.85;1.55;;;;;;;17.14;93.93;100467.84;5045074;28;20633;-68
2024/04/08 05:25:12;;;;;;;1.92;1.17;;;;;;;17.08;94.89;100474.88;5031629;28;20495;-68
2024/04/08 05:27:37;;;;;;;2.15;1.35;;;;;;;17.17;94.03;100482.59;5046497;28;20048;-68
2024/04/08 05:30:04;;;;;;;3.80;1.02;;;;;;;17.20;93.46;100471.66;5042902;28;20045;-68
2024/04/08 05:32:29;;;;;;;2.78;1.48;;;;;;;17.19;92.84;100474.78;5051850;28;20030;-68
2024/04/08 05:34:55;;;;;;;1.95;1.05;;;;;;;17.15;93.32;100461.19;5047539;28;20026;-68
2024/04/08 05:37:20;;;;;;;2.40;1.35;;;;;;;17.15;93.41;100458.47;5032783;28;20538;-68
2024/04/08 05:39:47;;;;;;;1.73;1.08;;;;;;;17.11;93.64;100450.34;5044756;28;20056;-68
2024/04/08 05:42:12;;;;;;;3.88;1.58;;;;;;;17.15;94.07;100453.81;5013636;28;20041;-68
2024/04/08 05:44:38;;;;;;;3.17;1.58;;;;;;;17.20;93.85;100451.84;5043653;28;20044;-68
2024/04/08 05:47:03;;;;;;;2.60;1.20;;;;;;;17.28;93.20;100442.41;5034311;28;20454;-69
2024/04/08 05:49:29;;;;;;;3.40;1.55;;;;;;;17.21;94.17;100445.97;5032392;28;20037;-69
2024/04/08 05:51:54;;;;;;;4.30;1.27;;;;;;;17.26;93.82;100444.78;5029456;28;20033;-68
2024/04/08 05:54:20;;;;;;;3.67;1.40;;;;;;;17.33;93.40;100450.91;5039614;28;20757;-69
2024/04/08 05:56:45;;;;;;;2.00;1.25;;;;;;;17.28;92.81;100464.97;5051210;28;20060;-68
2024/04/08 05:59:10;;;;;;;2.83;1.45;;;;;;;17.25;92.68;100463.03;5029463;28;20041;-68
2024/04/08 06:01:36;;;;;;;1.65;1.15;;;;;;;17.19;93.54;100459.22;5039895;28;20021;-67
2024/04/08 06:04:03;;;;;;;8.70;1.20;;;;;;;17.18;93.55;100444.06;5032153;28;20026;-68
2024/04/08 06:06:29;;;;;;;2.47;1.20;;;;;;;17.23;94.24;100437.44;5045427;28;20063;-68
2024/04/08 06:09:04;;;;;;;2.08;1.17;;;;;;;17.27;94.32;100419.88;5042548;28;20034;-68
2024/04/08 06:11:30;;;;;;;3.05;0.95;;;;;;;17.23;93.86;100418.38;5031056;28;20037;-68
2024/04/08 06:13:55;;;;;;;1.65;1.15;;;;;;;17.28;93.88;100423.38;5032745;28;20045;-68
2024/04/08 06:16:21;;;;;;;3.50;1.05;;;;;;;17.36;93.40;100436.50;5049615;28;20087;-68
2024/04/08 06:18:46;;;;;;;1.20;1.08;;;;;;;17.40;92.67;100431.78;5039044;28;20037;-68
2024/04/08 06:21:11;;;;;;;1.83;0.80;;;;;;;17.42;92.63;100434.84;5019451;28;20041;-67
2024/04/08 06:23:37;;;;;;;2.25;0.82;;;;;;;17.36;92.93;100433.78;5064139;28;20036;-68
2024/04/08 06:26:03;;;;;;;1.52;1.00;;;;;;;17.43;93.39;100430.97;5018731;28;20124;-68
2024/04/08 06:28:29;;;;;;;3.15;0.82;;;;;;;17.51;93.90;100448.81;5032568;28;20101;-68
2024/04/08 06:30:55;;;;;;;2.28;1.00;;;;;;;17.62;92.30;100449.44;5048290;28;20073;-68
2024/04/08 06:33:21;;;;;;;2.45;0.60;;;;;;;17.67;91.48;100448.25;5029406;28;20150;-67
2024/04/08 06:35:47;;;;;;;2.85;0.88;;;;;;;17.50;91.94;100439.09;5031406;28;20048;-68
2024/04/08 06:38:13;;;;;;;1.27;0.90;;;;;;;17.60;90.96;100434.69;5044033;28;20033;-68
2024/04/08 06:40:39;;;;;;;2.95;0.98;;;;;;;17.54;91.09;100428.91;5026630;28;20034;-67
2024/04/08 06:43:05;;;;;;;0.65;0.57;;;;;;;17.55;91.87;100435.94;5040025;28;20033;-67
2024/04/08 06:45:30;;;;;;;1.35;0.95;;;;;;;17.66;91.88;100431.13;5020036;28;20021;-67
2024/04/08 06:47:56;;;;;;;1.10;0.60;;;;;;;17.75;92.09;100417.75;5032611;28;20037;-68
2024/04/08 06:50:22;;;;;;;1.38;0.45;;;;;;;17.90;93.32;100410.19;5030099;28;20033;-68
2024/04/08 06:52:47;;;;;;;3.58;0.80;;;;;;;18.12;93.41;100421.56;5034534;28;20040;-67
2024/04/08 06:55:13;;;;;;;2.08;0.70;;;;;;;18.30;92.07;100417.41;5030186;28;20026;-69
2024/04/08 06:57:38;;;;;;;4.57;0.93;;;;;;;18.40;90.90;100413.75;5049500;28;20055;-68
2024/04/08 07:00:04;;;;;;;2.78;0.40;;;;;;;18.41;89.94;100411.75;5033467;28;20734;-68
2024/04/08 07:02:29;;;;;;;3.03;0.75;;;;;;;18.42;90.43;100421.50;5028719;28;20036;-68
2024/04/08 07:04:55;;;;;;;0.60;0.50;;;;;;;18.61;90.51;100412.66;5047820;28;20481;-68
2024/04/08 07:07:20;;;;;;;2.83;0.70;;;;;;;18.88;90.02;100407.91;5036018;28;20024;-68
2024/04/08 07:09:46;;;;;;;0.85;0.60;;;;;;;19.06;89.71;100402.91;5026292;28;20518;-68
2024/04/08 07:12:12;;;;;;;1.80;0.70;;;;;;;19.07;87.34;100396.22;5032553;28;20068;-68
2024/04/08 07:14:37;;;;;;;1.10;0.50;;;;;;;19.17;86.59;100398.00;5027598;28;20041;-67
2024/04/08 07:17:03;;;;;;;0.70;0.30;;;;;;;19.18;88.02;100394.06;5026798;28;20148;-68
2024/04/08 07:19:29;;;;;;;0.32;0.20;;;;;;;19.27;88.59;100391.56;5032972;28;20494;-68
2024/04/08 07:21:54;;;;;;;1.27;0.57;;;;;;;19.46;89.06;100384.59;5043019;28;20022;-68
2024/04/08 07:24:20;;;;;;;2.90;0.60;;;;;;;19.55;89.26;100396.47;5036547;28;20083;-68
2024/04/08 07:26:46;;;;;;;2.65;0.40;;;;;;;19.88;87.60;100388.41;5013978;28;20040;-68
2024/04/08 07:29:11;;;;;;;0.52;0.40;;;;;;;20.00;88.52;100390.44;5053698;28;20041;-68
2024/04/08 07:31:37;;;;;;;2.00;0.30;;;;;;;20.20;87.89;100385.72;5032375;28;20026;-68
2024/04/08 07:34:02;;;;;;;1.58;0.60;;;;;;;20.37;84.26;100373.59;5033941;28;20035;-67
2024/04/08 07:36:28;;;;;;;1.40;0.38;;;;;;;20.51;86.10;100368.56;5063312;28;20056;-68
2024/04/08 07:38:54;;;;;;;1.77;0.45;;;;;;;20.84;84.21;100363.78;5062707;28;20037;-68
2024/04/08 07:41:19;;;;;;;0.80;0.40;;;;;;;21.04;82.42;100371.91;5034608;28;20168;-68
2024/04/08 07:43:45;;;;;;;0.65;0.30;;;;;;;21.37;80.58;100381.53;5035936;28;20124;-68
2024/04/08 07:46:10;;;;;;;0.65;0.45;;;;;;;21.60;78.76;100394.22;5027983;28;20524;-68
2024/04/08 07:48:36;;;;;;;0.35;0.32;;;;;;;21.81;79.70;100390.88;5066650;28;20036;-68
2024/04/08 07:51:02;;;;;;;0.43;0.40;;;;;;;22.06;76.40;100386.16;5031924;28;20025;-68
2024/04/08 07:53:28;;;;;;;1.08;0.35;;;;;;;22.14;77.94;100390.19;5039163;28;20632;-68
2024/04/08 07:55:53;;;;;;;0.80;0.40;;;;;;;22.13;71.93;100407.09;5051155;28;20044;-67
2024/04/08 07:58:19;;;;;;;1.80;0.40;;;;;;;21.74;72.08;100404.78;5049658;28;20052;-67
2024/04/08 08:00:58;;;;;;;0.60;0.30;;;;;;;21.55;77.08;100401.75;5026427;28;20037;-67
2024/04/08 08:03:26;;;;;;;0.57;0.30;;;;;;;21.58;77.83;100402.09;5027584;28;20081;-67
2024/04/08 08:05:51;;;;;;;1.70;0.40;;;;;;;21.68;76.24;100390.81;5031130;28;20021;-68
2024/04/08 08:08:17;;;;;;;0.57;0.40;;;;;;;21.77;79.07;100390.16;5030925;28;20041;-67
2024/04/08 08:10:44;;;;;;;0.50;0.32;;;;;;;22.05;76.10;100387.38;5042355;28;20032;-67
2024/04/08 08:13:10;;;;;;;0.50;0.30;;;;;;;22.15;74.75;100385.50;5041047;28;20036;-67
2024/04/08 08:15:35;;;;;;;0.95;0.20;;;;;;;22.18;77.68;100376.41;5033654;28;20402;-67
2024/04/08 08:18:01;;;;;;;0.32;0.30;;;;;;;22.43;72.50;100368.13;5036515;28;20031;-67
2024/04/08 08:20:27;;;;;;;0.70;0.30;;;;;;;22.50;75.49;100362.38;5032143;28;20527;-67
2024/04/08 08:22:56;;;;;;;1.20;0.32;;;;;;;22.62;72.61;100350.66;5032489;28;20040;-68
2024/04/08 08:25:23;;;;;;;0.70;0.40;;;;;;;22.74;72.83;100341.59;5063178;28;20033;-67
2024/04/08 08:27:48;;;;;;;0.98;0.32;;;;;;;22.84;71.17;100326.72;5028943;28;20053;-67
2024/04/08 08:30:14;;;;;;;1.70;0.57;;;;;;;22.91;70.03;100326.47;5032347;28;20525;-67
2024/04/08 08:32:40;;;;;;;0.40;0.22;;;;;;;22.93;70.22;100328.78;5048396;28;20052;-69
2024/04/08 08:35:05;;;;;;;1.00;0.40;;;;;;;23.06;68.38;100319.25;5044421;28;20446;-67
2024/04/08 08:37:31;;;;;;;1.08;0.20;;;;;;;23.21;68.35;100331.25;5031650;28;20049;-67
2024/04/08 08:39:57;;;;;;;1.05;0.55;;;;;;;23.30;65.74;100328.59;5028818;28;20037;-67
2024/04/08 08:42:25;;;;;;;3.47;0.85;;;;;;;23.27;68.81;100334.97;5026215;28;20040;-68
2024/04/08 08:44:54;;;;;;;0.25;0.25;;;;;;;23.15;65.20;100349.53;5048047;28;20033;-68
2024/04/08 08:47:23;;;;;;;0.57;0.20;;;;;;;23.13;70.87;100360.22;5031986;28;20025;-68
2024/04/08 08:49:53;;;;;;;1.45;0.30;;;;;;;23.39;68.27;100374.63;5030755;28;20037;-68
2024/04/08 08:52:20;;;;;;;0.98;0.40;;;;;;;23.60;65.53;100378.56;5027710;28;20064;-68
2024/04/08 08:54:46;;;;;;;1.13;0.40;;;;;;;23.76;70.32;100381.09;5016682;28;20026;-68
2024/04/08 08:57:12;;;;;;;0.63;0.40;;;;;;;23.71;62.46;100378.94;5029240;28;20032;-68
2024/04/08 08:59:39;;;;;;;0.50;0.25;;;;;;;23.66;63.39;100371.25;5029583;28;20477;-68
2024/04/08 09:02:05;;;;;;;1.83;0.30;;;;;;;23.75;62.12;100374.81;5026924;28;20729;-67
2024/04/08 09:04:30;;;;;;;0.22;0.22;;;;;;;23.70;61.62;100382.88;5027821;28;20414;-67
2024/04/08 09:06:56;;;;;;;0.40;0.40;;;;;;;23.60;61.91;100386.81;5027451;28;20021;-67
2024/04/08 09:09:22;;;;;;;1.00;0.40;;;;;;;23.66;63.81;100382.25;5030624;28;20047;-67
2024/04/08 09:11:48;;;;;;;7.28;0.43;;;;;;;23.91;65.89;100382.06;5036891;28;20029;-68
2024/04/08 09:14:14;;;;;;;0.98;0.25;;;;;;;23.87;60.83;100386.94;5032231;28;20067;-67
2024/04/08 09:16:41;;;;;;;1.98;0.52;;;;;;;23.92;61.22;100391.88;5029623;28;20037;-67
2024/04/08 09:19:07;;;;;;;0.40;0.40;;;;;;;23.81;59.72;100391.53;5046736;28;20030;-67
2024/04/08 09:21:33;;;;;;;3.55;0.47;;;;;;;23.81;61.05;100386.78;5021367;28;20049;-67
2024/04/08 09:24:03;;;;;;;0.30;0.30;;;;;;;24.00;62.10;100390.38;5028917;28;20041;-67
2024/04/08 09:26:29;;;;;;;0.70;0.30;;;;;;;24.23;61.77;100383.59;5043586;28;20056;-67
2024/04/08 09:28:55;;;;;;;0.90;0.30;;;;;;;24.32;63.41;100367.88;5028796;28;20017;-67
2024/04/08 09:31:20;;;;;;;0.52;0.28;;;;;;;24.42;56.83;100369.44;5027519;28;20529;-68
2024/04/08 09:33:46;;;;;;;1.55;0.45;;;;;;;24.12;58.18;100375.75;5044530;28;20021;-68
2024/04/08 09:36:14;;;;;;;2.75;0.40;;;;;;;23.92;62.72;100369.88;5048778;28;20033;-68
2024/04/08 09:38:41;;;;;;;0.73;0.20;;;;;;;23.78;62.56;100384.16;5033323;28;20042;-67
2024/04/08 09:41:07;;;;;;;1.17;0.40;;;;;;;23.56;59.76;100399.91;5030497;28;20033;-67
2024/04/08 09:43:33;;;;;;;0.82;0.35;;;;;;;23.30;61.23;100385.53;5032954;28;20026;-67
2024/04/08 09:46:00;;;;;;;1.38;0.40;;;;;;;23.07;62.57;100386.72;5032337;28;20051;-67
2024/04/08 09:48:27;;;;;;;4.07;0.35;;;;;;;22.99;60.79;100382.72;5025609;28;20025;-68
2024/04/08 09:50:54;;;;;;;0.98;0.50;;;;;;;22.80;61.69;100381.00;5011547;28;20095;-67
2024/04/08 09:53:19;;;;;;;2.38;0.47;;;;;;;22.74;64.21;100377.31;5045701;28;20060;-67
2024/04/08 09:55:49;;;;;;;4.18;0.43;;;;;;;23.00;66.68;100377.97;5030948;28;20064;-67
2024/04/08 09:58:17;;;;;;;1.90;0.40;;;;;;;23.42;63.90;100382.00;5039978;28;20034;-67
2024/04/08 10:00:45;;;;;;;4.57;0.45;;;;;;;23.70;63.87;100380.13;5065245;28;20025;-67
2024/04/08 10:03:15;;;;;;;0.63;0.30;;;;;;;23.76;62.36;100381.09;5038272;28;20036;-68
2024/04/08 10:07:15;;;;;;;0.63;0.40;;;;;;;23.89;62.85;100379.78;5426785;26;20314;-66
2024/04/08 10:09:41;;;;;;;0.88;0.30;;;;;;;23.99;61.72;100378.59;5422394;26;20536;-69
2024/04/08 10:12:08;;;;;;;1.02;0.50;;;;;;;24.03;58.41;100375.72;5423605;26;20011;-68
2024/04/08 10:14:34;;;;;;;2.67;0.47;;;;;;;24.02;61.81;100376.97;5424519;26;20018;-68
2024/04/08 10:17:00;;;;;;;0.38;0.28;;;;;;;24.18;61.17;100374.72;5417201;26;19996;-68
2024/04/08 10:19:26;;;;;;;1.27;0.30;;;;;;;24.40;61.82;100371.09;5425025;26;19995;-69
2024/04/08 10:22:02;;;;;;;0.38;0.20;;;;;;;24.59;60.33;100367.16;5427369;26;20100;-68
2024/04/08 10:24:29;;;;;;;1.83;0.40;;;;;;;24.73;58.77;100364.59;5421462;26;20662;-68
2024/04/08 10:27:01;;;;;;;0.60;0.40;;;;;;;24.87;59.47;100360.47;5422831;26;20009;-66
2024/04/08 10:29:27;;;;;;;0.88;0.45;;;;;;;24.95;57.31;100356.19;5426205;26;20003;-67
2024/04/08 10:31:52;;;;;;;4.97;0.40;;;;;;;25.09;57.16;100347.28;5419563;26;20474;-67
2024/04/08 10:34:20;;;;;;;0.30;0.25;;;;;;;25.23;58.68;100351.41;5420142;26;19999;-67
2024/04/08 10:36:45;;;;;;;0.65;0.30;;;;;;;25.33;58.00;100341.88;5416943;26;20464;-67
2024/04/08 10:39:11;;;;;;;1.83;0.40;;;;;;;25.34;55.86;100335.16;5415598;26;20015;-67
2024/04/08 10:41:36;;;;;;;3.00;0.40;;;;;;;25.39;56.27;100332.56;5418503;26;20371;-67
2024/04/08 10:44:02;;;;;;;1.27;0.40;;;;;;;25.37;56.23;100329.47;5424719;26;20009;-67
2024/04/08 10:46:28;;;;;;;2.13;0.30;;;;;;;25.51;56.13;100317.06;5394985;26;20011;-67
2024/04/08 10:48:54;;;;;;;0.90;0.50;;;;;;;25.57;56.14;100320.72;5415908;26;19991;-67
2024/04/08 10:51:19;;;;;;;5.57;0.30;;;;;;;25.44;56.36;100314.59;5417884;26;19999;-67
2024/04/08 10:53:45;;;;;;;2.72;0.73;;;;;;;25.63;56.37;100316.06;5396270;26;19999;-67
2024/04/08 10:56:10;;;;;;;1.08;0.38;;;;;;;25.78;56.13;100312.16;5420450;26;19999;-67
2024/04/08 10:58:36;;;;;;;1.00;0.40;;;;;;;25.92;55.97;100300.44;5429065;26;20007;-67
2024/04/08 11:01:04;;;;;;;1.95;0.40;;;;;;;26.00;55.94;100298.09;5414921;26;20000;-67
2024/04/08 11:03:30;;;;;;;2.38;0.40;;;;;;;26.06;54.07;100301.78;5390599;26;20004;-66
2024/04/08 11:05:56;;;;;;;1.60;0.57;;;;;;;26.12;54.59;100299.16;5419183;26;19999;-67
2024/04/08 11:08:22;;;;;;;1.77;0.30;;;;;;;26.11;54.54;100309.44;5418650;26;20512;-67
2024/04/08 11:10:47;;;;;;;0.82;0.30;;;;;;;26.18;53.31;100305.56;5411152;26;20006;-67
2024/04/08 11:13:13;;;;;;;0.35;0.22;;;;;;;26.23;54.14;100307.69;5426184;26;19999;-67
2024/04/08 11:15:40;;;;;;;0.75;0.30;;;;;;;26.30;51.93;100310.84;5416617;26;20099;-67
2024/04/08 11:18:10;;;;;;;0.25;0.20;;;;;;;26.36;50.76;100300.69;5404941;26;20010;-67
2024/04/08 11:20:36;;;;;;;2.80;0.30;;;;;;;26.44;51.70;100304.59;5405357;26;20000;-67